Time;durP1;ratioP1;P1;durP2;ratioP2;P2;SDS_P1;SDS_P2;PMS_P1;PMS_P2;Temp;Humidity;BMP_temperature;BMP_pressure;BME280_temperature;BME280_humidity;BME280_pressure;Samples;Min_cycle;Max_cycle;Signal;HPM_P1;HPM_P2
2022/03/22 00:01:51;;;;;;;15.43;6.35;;;;;;;;;;5097324;28;20027;-78
2022/03/22 00:04:17;;;;;;;12.27;6.60;;;;;;;;;;5096770;28;20024;-78
2022/03/22 00:06:43;;;;;;;11.38;6.40;;;;;;;;;;5098792;28;20016;-78
2022/03/22 00:09:08;;;;;;;11.65;6.45;;;;;;;;;;5098114;28;20027;-78
2022/03/22 00:11:33;;;;;;;12.60;6.28;;;;;;;;;;5096652;28;20426;-78
2022/03/22 00:13:59;;;;;;;12.38;6.28;;;;;;;;;;5097708;28;20060;-78
2022/03/22 00:16:24;;;;;;;12.57;6.13;;;;;;;;;;5096398;28;20028;-78
2022/03/22 00:18:49;;;;;;;12.65;6.35;;;;;;;;;;5098265;28;20032;-78
2022/03/22 00:21:15;;;;;;;9.68;5.57;;;;;;;;;;5097853;28;20412;-78
2022/03/22 00:23:40;;;;;;;12.48;5.93;;;;;;;;;;5098219;28;20024;-78
2022/03/22 00:26:06;;;;;;;10.98;5.80;;;;;;;;;;5096331;28;20028;-77
2022/03/22 00:28:31;;;;;;;10.73;5.75;;;;;;;;;;5095186;28;20028;-78
2022/03/22 00:30:56;;;;;;;12.27;6.05;;;;;;;;;;5097364;28;20420;-78
2022/03/22 00:33:22;;;;;;;10.93;6.00;;;;;;;;;;5097129;28;20024;-78
2022/03/22 00:35:48;;;;;;;12.10;5.97;;;;;;;;;;5097477;28;20480;-78
2022/03/22 00:38:16;;;;;;;11.20;6.18;;;;;;;;;;5097217;28;20028;-78
2022/03/22 00:40:42;;;;;;;13.77;6.05;;;;;;;;;;5096386;28;20501;-79
2022/03/22 00:43:08;;;;;;;13.93;6.13;;;;;;;;;;5096597;28;20035;-78
2022/03/22 00:45:34;;;;;;;10.15;5.80;;;;;;;;;;5097871;28;20174;-78
2022/03/22 00:48:02;;;;;;;14.82;6.10;;;;;;;;;;5097349;28;20388;-78
2022/03/22 00:50:36;;;;;;;14.00;6.10;;;;;;;;;;5097219;28;20417;-77
2022/03/22 00:53:05;;;;;;;12.52;6.00;;;;;;;;;;5094432;28;20055;-78
2022/03/22 00:55:31;;;;;;;13.73;6.35;;;;;;;;;;5093691;28;20028;-78
2022/03/22 00:57:57;;;;;;;11.50;6.10;;;;;;;;;;5096824;28;20256;-78
2022/03/22 01:00:27;;;;;;;11.00;6.00;;;;;;;;;;5096502;28;20024;-78
2022/03/22 01:02:55;;;;;;;10.38;6.10;;;;;;;;;;5095260;28;20485;-77
2022/03/22 01:05:22;;;;;;;11.30;6.20;;;;;;;;;;5095462;28;20028;-79
2022/03/22 01:07:54;;;;;;;12.82;6.35;;;;;;;;;;5094134;28;20041;-77
2022/03/22 01:10:21;;;;;;;10.65;5.95;;;;;;;;;;5095899;28;20024;-78
2022/03/22 01:12:47;;;;;;;11.20;5.78;;;;;;;;;;5095517;28;20032;-78
2022/03/22 01:15:18;;;;;;;10.15;5.90;;;;;;;;;;5095727;28;20039;-78
2022/03/22 01:17:54;;;;;;;13.23;6.30;;;;;;;;;;5095247;28;20500;-79
2022/03/22 01:20:21;;;;;;;13.13;6.18;;;;;;;;;;5096717;28;20389;-78
2022/03/22 01:22:47;;;;;;;12.75;6.07;;;;;;;;;;5096267;28;20055;-77
2022/03/22 01:25:23;;;;;;;13.25;5.43;;;;;;;;;;5096200;28;20496;-78
2022/03/22 01:27:49;;;;;;;10.25;5.70;;;;;;;;;;5097601;28;20020;-77
2022/03/22 01:30:16;;;;;;;12.27;6.03;;;;;;;;;;5096158;28;20024;-78
2022/03/22 01:32:42;;;;;;;14.45;6.45;;;;;;;;;;5094568;28;20044;-77
2022/03/22 01:35:11;;;;;;;11.05;5.97;;;;;;;;;;5096102;28;20028;-78
2022/03/22 01:37:37;;;;;;;10.52;5.55;;;;;;;;;;5097054;28;20085;-79
2022/03/22 01:40:07;;;;;;;12.55;5.65;;;;;;;;;;5094631;28;20112;-78
2022/03/22 01:42:34;;;;;;;12.05;5.63;;;;;;;;;;5096918;28;20024;-78
2022/03/22 01:44:59;;;;;;;12.23;5.72;;;;;;;;;;5096877;28;20027;-78
2022/03/22 01:47:25;;;;;;;11.85;5.90;;;;;;;;;;5100325;28;20024;-79
2022/03/22 01:49:51;;;;;;;14.02;6.32;;;;;;;;;;5101136;28;20027;-78
2022/03/22 01:52:20;;;;;;;12.15;5.63;;;;;;;;;;5102193;28;20424;-77
2022/03/22 01:54:50;;;;;;;9.80;5.65;;;;;;;;;;5100329;28;20442;-78
2022/03/22 01:57:17;;;;;;;10.65;6.03;;;;;;;;;;5101293;28;20027;-78
2022/03/22 01:59:42;;;;;;;12.50;6.18;;;;;;;;;;5102661;28;20362;-79
2022/03/22 02:07:37;;;;;;;13.27;5.82;;;;;;;;;;5100794;28;20405;-80
2022/03/22 02:10:03;;;;;;;13.50;6.28;;;;;;;;;;5100498;28;20024;-78
2022/03/22 02:12:28;;;;;;;12.77;6.20;;;;;;;;;;5098685;28;20023;-78
2022/03/22 02:14:53;;;;;;;11.60;6.10;;;;;;;;;;5099799;28;20511;-79
2022/03/22 02:17:19;;;;;;;10.40;6.10;;;;;;;;;;5100364;28;20054;-78
2022/03/22 02:19:47;;;;;;;11.57;6.43;;;;;;;;;;5097575;28;20393;-77
2022/03/22 02:22:16;;;;;;;13.45;6.50;;;;;;;;;;5100007;28;20028;-77
2022/03/22 02:24:41;;;;;;;12.30;6.53;;;;;;;;;;5097075;28;20529;-78
2022/03/22 02:27:07;;;;;;;14.80;6.50;;;;;;;;;;5100594;28;20123;-78
2022/03/22 02:29:34;;;;;;;12.40;5.80;;;;;;;;;;5098550;28;20392;-78
2022/03/22 02:31:59;;;;;;;12.48;6.18;;;;;;;;;;5101177;28;20023;-78
2022/03/22 02:34:25;;;;;;;13.38;6.40;;;;;;;;;;5103182;28;20087;-78
2022/03/22 02:36:50;;;;;;;12.85;6.15;;;;;;;;;;5101230;28;20052;-77
2022/03/22 02:39:15;;;;;;;13.50;5.88;;;;;;;;;;5099146;28;20106;-77
2022/03/22 02:41:42;;;;;;;10.90;6.00;;;;;;;;;;5098430;28;20059;-77
2022/03/22 02:44:10;;;;;;;12.88;6.55;;;;;;;;;;5099070;28;20800;-77
2022/03/22 02:46:35;;;;;;;11.88;6.25;;;;;;;;;;5099139;28;20055;-77
2022/03/22 02:49:01;;;;;;;12.50;6.55;;;;;;;;;;5099337;28;20020;-76
2022/03/22 02:51:26;;;;;;;14.80;6.95;;;;;;;;;;5099499;28;20024;-78
2022/03/22 02:53:51;;;;;;;13.52;6.63;;;;;;;;;;5100190;28;20031;-78
2022/03/22 02:56:16;;;;;;;13.50;6.43;;;;;;;;;;5100247;28;20032;-78
2022/03/22 02:58:42;;;;;;;13.27;6.63;;;;;;;;;;5098198;28;20024;-78
2022/03/22 03:01:07;;;;;;;13.32;6.60;;;;;;;;;;5097753;28;20386;-78
2022/03/22 03:03:33;;;;;;;11.10;6.50;;;;;;;;;;5099225;28;20392;-78
2022/03/22 03:05:58;;;;;;;12.32;5.88;;;;;;;;;;5098905;28;20444;-78
2022/03/22 03:08:26;;;;;;;16.80;6.95;;;;;;;;;;5099460;28;20055;-78
2022/03/22 03:10:52;;;;;;;14.02;6.47;;;;;;;;;;5099470;28;20034;-78
2022/03/22 03:13:17;;;;;;;13.80;6.47;;;;;;;;;;5098104;28;20103;-78
2022/03/22 03:15:42;;;;;;;11.98;6.72;;;;;;;;;;5097620;28;20034;-78
2022/03/22 03:18:08;;;;;;;14.93;6.80;;;;;;;;;;5096763;28;20111;-78
2022/03/22 03:20:34;;;;;;;13.32;6.57;;;;;;;;;;5096911;28;20031;-78
2022/03/22 03:22:59;;;;;;;13.43;6.75;;;;;;;;;;5095583;28;20053;-77
2022/03/22 03:25:25;;;;;;;14.48;6.93;;;;;;;;;;5096003;28;20028;-78
2022/03/22 03:27:50;;;;;;;14.60;6.70;;;;;;;;;;5097168;28;20031;-78
2022/03/22 03:30:16;;;;;;;12.32;6.38;;;;;;;;;;5097257;28;20051;-78
2022/03/22 03:32:41;;;;;;;10.60;6.65;;;;;;;;;;5097241;28;20476;-78
2022/03/22 03:35:06;;;;;;;14.02;6.72;;;;;;;;;;5097528;28;20042;-78
2022/03/22 03:37:42;;;;;;;16.83;7.10;;;;;;;;;;5097931;28;20559;-78
2022/03/22 03:40:07;;;;;;;14.80;6.78;;;;;;;;;;5096298;28;20024;-76
2022/03/22 03:42:33;;;;;;;12.55;6.47;;;;;;;;;;5096163;28;20023;-77
2022/03/22 03:47:42;;;;;;;11.55;6.78;;;;;;;;;;5095771;28;20047;-77
2022/03/22 03:50:08;;;;;;;13.63;6.82;;;;;;;;;;5094569;28;20484;-76
2022/03/22 03:52:36;;;;;;;14.15;7.30;;;;;;;;;;5095222;28;20060;-77
2022/03/22 03:55:03;;;;;;;13.75;6.65;;;;;;;;;;5096283;28;20025;-77
2022/03/22 03:57:29;;;;;;;12.98;7.13;;;;;;;;;;5096191;28;20024;-77
2022/03/22 03:59:55;;;;;;;13.45;6.93;;;;;;;;;;5095107;28;20027;-78
2022/03/22 04:02:21;;;;;;;13.35;6.57;;;;;;;;;;5096604;28;20073;-77
2022/03/22 04:04:51;;;;;;;15.52;7.15;;;;;;;;;;5095524;28;20028;-77
2022/03/22 04:07:22;;;;;;;13.05;6.75;;;;;;;;;;5096034;28;20019;-77
2022/03/22 04:09:47;;;;;;;13.68;6.93;;;;;;;;;;5093457;28;20035;-77
2022/03/22 04:12:13;;;;;;;12.45;6.82;;;;;;;;;;5096450;28;20028;-77
2022/03/22 04:14:38;;;;;;;12.98;7.03;;;;;;;;;;5097947;28;20040;-77
2022/03/22 04:17:07;;;;;;;12.07;6.95;;;;;;;;;;5096639;28;20036;-77
2022/03/22 04:19:33;;;;;;;14.98;7.72;;;;;;;;;;5096177;28;20020;-77
2022/03/22 04:21:58;;;;;;;14.80;7.32;;;;;;;;;;5096874;28;20093;-77
2022/03/22 04:24:23;;;;;;;13.57;6.90;;;;;;;;;;5095367;28;20062;-77
2022/03/22 04:26:48;;;;;;;17.95;7.60;;;;;;;;;;5094825;28;20016;-78
2022/03/22 04:34:44;;;;;;;14.07;6.97;;;;;;;;;;5097398;28;20404;-78
2022/03/22 04:37:12;;;;;;;14.43;7.57;;;;;;;;;;5097788;28;20055;-78
2022/03/22 04:39:38;;;;;;;13.95;6.90;;;;;;;;;;5098449;28;20497;-78
2022/03/22 04:42:04;;;;;;;12.38;7.22;;;;;;;;;;5097571;28;20481;-78
2022/03/22 04:44:30;;;;;;;16.20;7.25;;;;;;;;;;5097134;28;20035;-77
2022/03/22 04:46:56;;;;;;;15.40;7.32;;;;;;;;;;5098553;28;20099;-77
2022/03/22 04:49:22;;;;;;;14.05;7.63;;;;;;;;;;5097548;28;20024;-77
2022/03/22 04:57:16;;;;;;;19.98;8.32;;;;;;;;;;5095342;28;20035;-77
2022/03/22 04:59:42;;;;;;;15.43;8.13;;;;;;;;;;5092955;28;20027;-77
2022/03/22 05:02:08;;;;;;;18.35;8.95;;;;;;;;;;5094455;28;20024;-77
2022/03/22 05:04:33;;;;;;;15.95;8.18;;;;;;;;;;5094474;28;20405;-77
2022/03/22 05:06:59;;;;;;;15.05;8.02;;;;;;;;;;5094183;28;20016;-77
2022/03/22 05:09:24;;;;;;;13.77;7.30;;;;;;;;;;5094077;28;20035;-77
2022/03/22 05:11:49;;;;;;;15.02;7.38;;;;;;;;;;5093456;28;20495;-77
2022/03/22 05:14:14;;;;;;;20.15;8.07;;;;;;;;;;5093611;28;20036;-77
2022/03/22 05:16:40;;;;;;;15.65;7.78;;;;;;;;;;5093993;28;20037;-77
2022/03/22 05:19:05;;;;;;;15.93;7.85;;;;;;;;;;5094246;28;20376;-77
2022/03/22 05:21:31;;;;;;;17.70;7.68;;;;;;;;;;5095021;28;20027;-77
2022/03/22 05:23:57;;;;;;;15.43;7.95;;;;;;;;;;5098055;28;20500;-77
2022/03/22 05:26:25;;;;;;;12.20;6.82;;;;;;;;;;5104399;28;20028;-77
2022/03/22 05:28:51;;;;;;;17.25;7.47;;;;;;;;;;5098163;28;20027;-77
2022/03/22 05:31:16;;;;;;;14.73;7.32;;;;;;;;;;5098081;28;20020;-78
2022/03/22 05:33:42;;;;;;;16.23;7.95;;;;;;;;;;5098720;28;20028;-78
2022/03/22 05:36:07;;;;;;;13.98;7.90;;;;;;;;;;5099084;28;20423;-77
2022/03/22 05:38:33;;;;;;;11.90;6.40;;;;;;;;;;5095909;28;20032;-77
2022/03/22 05:41:02;;;;;;;14.57;7.53;;;;;;;;;;5099003;28;20020;-78
2022/03/22 05:43:27;;;;;;;17.27;7.63;;;;;;;;;;5098657;28;20024;-78
2022/03/22 05:45:53;;;;;;;18.52;8.38;;;;;;;;;;5099577;28;20513;-78
2022/03/22 05:48:19;;;;;;;15.98;7.82;;;;;;;;;;5097596;28;20385;-78
2022/03/22 05:50:44;;;;;;;14.95;8.05;;;;;;;;;;5099121;28;20027;-78
2022/03/22 05:53:12;;;;;;;16.13;8.65;;;;;;;;;;5098044;28;20032;-78
2022/03/22 05:55:38;;;;;;;18.95;8.73;;;;;;;;;;5097971;28;20055;-78
2022/03/22 05:58:04;;;;;;;18.65;9.10;;;;;;;;;;5098254;28;20438;-78
2022/03/22 06:00:29;;;;;;;16.52;8.80;;;;;;;;;;5096028;28;20020;-77
2022/03/22 06:02:55;;;;;;;21.58;9.60;;;;;;;;;;5096883;28;20024;-78
2022/03/22 06:05:21;;;;;;;20.40;10.07;;;;;;;;;;5096580;28;20023;-78
2022/03/22 06:07:46;;;;;;;14.75;8.25;;;;;;;;;;5098268;28;20019;-78
2022/03/22 06:10:12;;;;;;;18.27;9.57;;;;;;;;;;5099047;28;20456;-78
2022/03/22 06:12:49;;;;;;;18.77;9.13;;;;;;;;;;5098129;28;20034;-78
2022/03/22 06:15:20;;;;;;;15.45;8.35;;;;;;;;;;5097506;28;20024;-78
2022/03/22 06:17:46;;;;;;;15.32;8.90;;;;;;;;;;5098257;28;20024;-78
2022/03/22 06:20:13;;;;;;;17.13;8.85;;;;;;;;;;5098482;28;20130;-78
2022/03/22 06:22:39;;;;;;;15.68;9.13;;;;;;;;;;5100733;28;20033;-78
2022/03/22 06:25:04;;;;;;;17.13;10.30;;;;;;;;;;5099511;28;20209;-77
2022/03/22 06:27:30;;;;;;;17.58;9.05;;;;;;;;;;5097499;28;20088;-78
2022/03/22 06:29:55;;;;;;;16.77;10.07;;;;;;;;;;5097696;28;20027;-77
2022/03/22 06:32:20;;;;;;;18.98;10.48;;;;;;;;;;5096581;28;20437;-77
2022/03/22 06:34:47;;;;;;;19.88;10.32;;;;;;;;;;5096759;28;20028;-77
2022/03/22 06:37:13;;;;;;;16.45;9.25;;;;;;;;;;5097357;28;20073;-74
2022/03/22 06:39:38;;;;;;;14.93;8.27;;;;;;;;;;5095635;28;20024;-74
2022/03/22 06:42:03;;;;;;;15.40;7.47;;;;;;;;;;5096418;28;20028;-75
2022/03/22 06:44:29;;;;;;;15.05;8.23;;;;;;;;;;5095056;28;20034;-73
2022/03/22 06:46:55;;;;;;;14.88;7.60;;;;;;;;;;5096753;28;20020;-76
2022/03/22 06:49:20;;;;;;;15.38;7.82;;;;;;;;;;5095549;28;20111;-74
2022/03/22 06:51:45;;;;;;;15.38;7.40;;;;;;;;;;5093848;28;20031;-74
2022/03/22 06:54:12;;;;;;;10.90;5.97;;;;;;;;;;5093784;28;20026;-74
2022/03/22 06:56:38;;;;;;;12.30;6.93;;;;;;;;;;5095996;28;20047;-73
2022/03/22 06:59:03;;;;;;;13.95;7.18;;;;;;;;;;5095193;28;20055;-74
2022/03/22 07:01:28;;;;;;;13.70;6.35;;;;;;;;;;5095180;28;20393;-74
2022/03/22 07:03:54;;;;;;;12.07;6.38;;;;;;;;;;5094852;28;20099;-76
2022/03/22 07:06:19;;;;;;;12.88;6.53;;;;;;;;;;5093786;28;20027;-74
2022/03/22 07:08:44;;;;;;;14.00;6.50;;;;;;;;;;5093596;28;20020;-75
2022/03/22 07:13:53;;;;;;;14.70;6.85;;;;;;;;;;5097853;28;20157;-78
2022/03/22 07:16:19;;;;;;;12.65;6.10;;;;;;;;;;5099906;28;20065;-78
2022/03/22 07:18:44;;;;;;;11.43;5.95;;;;;;;;;;5098892;28;20396;-77
2022/03/22 07:21:09;;;;;;;16.08;7.28;;;;;;;;;;5099836;28;20476;-78
2022/03/22 07:23:35;;;;;;;11.38;5.70;;;;;;;;;;5095173;28;20050;-77
2022/03/22 07:26:00;;;;;;;13.07;6.82;;;;;;;;;;5095894;28;20023;-79
2022/03/22 07:28:26;;;;;;;13.77;6.30;;;;;;;;;;5097472;28;20027;-78
2022/03/22 07:30:51;;;;;;;11.77;6.75;;;;;;;;;;5096199;28;20032;-78
2022/03/22 07:33:16;;;;;;;12.70;6.47;;;;;;;;;;5098204;28;20042;-78
2022/03/22 07:35:42;;;;;;;10.45;5.82;;;;;;;;;;5096816;28;20276;-78
2022/03/22 07:38:07;;;;;;;14.35;6.25;;;;;;;;;;5101138;28;20106;-79
2022/03/22 07:40:32;;;;;;;11.17;6.13;;;;;;;;;;5099884;28;20503;-78
2022/03/22 07:42:57;;;;;;;11.10;6.25;;;;;;;;;;5101551;28;20260;-78
2022/03/22 07:45:23;;;;;;;12.93;6.37;;;;;;;;;;5099473;28;20511;-78
2022/03/22 07:47:48;;;;;;;11.27;6.57;;;;;;;;;;5098040;28;20726;-78
2022/03/22 07:52:58;;;;;;;10.75;6.07;;;;;;;;;;5101108;28;20030;-78
2022/03/22 07:55:23;;;;;;;12.65;6.78;;;;;;;;;;5098401;28;20083;-77
2022/03/22 07:57:48;;;;;;;12.40;6.45;;;;;;;;;;5100668;28;20032;-78
2022/03/22 08:00:14;;;;;;;13.23;6.05;;;;;;;;;;5097722;28;20020;-77
2022/03/22 08:02:56;;;;;;;11.95;6.68;;;;;;;;;;5094687;28;20032;-77
2022/03/22 08:05:23;;;;;;;9.00;5.15;;;;;;;;;;5101486;28;20544;-78
2022/03/22 08:07:48;;;;;;;13.07;6.25;;;;;;;;;;5098367;28;20404;-77
2022/03/22 08:10:14;;;;;;;14.32;6.93;;;;;;;;;;5100576;28;20032;-77
2022/03/22 08:12:40;;;;;;;12.88;6.93;;;;;;;;;;5100058;28;20040;-77
2022/03/22 08:15:06;;;;;;;11.35;6.22;;;;;;;;;;5102346;28;20048;-78
2022/03/22 08:17:32;;;;;;;12.88;6.70;;;;;;;;;;5098337;28;20035;-78
2022/03/22 08:19:57;;;;;;;12.63;5.55;;;;;;;;;;5099223;28;20028;-77
2022/03/22 08:22:22;;;;;;;9.45;4.88;;;;;;;;;;5094774;28;20027;-77
2022/03/22 08:24:47;;;;;;;11.07;6.50;;;;;;;;;;5095330;28;20028;-78
2022/03/22 08:27:13;;;;;;;13.48;6.72;;;;;;;;;;5102299;28;20248;-77
2022/03/22 08:29:38;;;;;;;14.10;6.60;;;;;;;;;;5099819;28;20024;-78
2022/03/22 08:32:04;;;;;;;11.75;6.47;;;;;;;;;;5101249;28;20343;-78
2022/03/22 08:34:29;;;;;;;10.68;6.22;;;;;;;;;;5096886;28;20031;-78
2022/03/22 08:36:54;;;;;;;20.67;5.93;;;;;;;;;;5099905;28;20473;-78
2022/03/22 08:39:20;;;;;;;14.95;6.85;;;;;;;;;;5102242;28;20110;-79
2022/03/22 08:41:45;;;;;;;17.42;7.18;;;;;;;;;;5101441;28;20028;-78
2022/03/22 08:44:11;;;;;;;13.52;6.75;;;;;;;;;;5099960;28;20020;-78
2022/03/22 08:46:37;;;;;;;11.57;5.95;;;;;;;;;;5099595;28;20468;-78
2022/03/22 08:49:02;;;;;;;13.23;6.38;;;;;;;;;;5100303;28;20027;-78
2022/03/22 08:51:27;;;;;;;11.63;6.05;;;;;;;;;;5099685;28;20046;-78
2022/03/22 08:53:54;;;;;;;11.98;6.07;;;;;;;;;;5094311;28;20028;-78
2022/03/22 08:56:22;;;;;;;14.82;7.15;;;;;;;;;;5095163;28;20032;-77
2022/03/22 08:58:50;;;;;;;11.68;6.22;;;;;;;;;;5098889;28;20099;-77
2022/03/22 09:01:15;;;;;;;12.20;6.25;;;;;;;;;;5101957;28;20024;-78
2022/03/22 09:03:40;;;;;;;12.05;6.65;;;;;;;;;;5102069;28;20027;-79
2022/03/22 09:06:08;;;;;;;11.93;6.40;;;;;;;;;;5105917;28;20012;-79
2022/03/22 09:08:38;;;;;;;14.13;6.50;;;;;;;;;;5101852;28;20302;-78
2022/03/22 09:11:05;;;;;;;12.45;6.30;;;;;;;;;;5099114;28;20020;-77
2022/03/22 09:13:30;;;;;;;6.85;3.55;;;;;;;;;;5099706;28;20024;-78
2022/03/22 09:15:56;;;;;;;13.77;6.55;;;;;;;;;;5102121;28;20016;-78
2022/03/22 09:18:21;;;;;;;12.23;6.30;;;;;;;;;;5103583;28;20106;-79
2022/03/22 09:20:47;;;;;;;10.27;6.20;;;;;;;;;;5106664;28;20028;-78
2022/03/22 09:23:13;;;;;;;10.77;6.22;;;;;;;;;;5107543;28;20028;-78
2022/03/22 09:25:40;;;;;;;18.80;6.10;;;;;;;;;;5104714;28;20024;-78
2022/03/22 09:28:06;;;;;;;10.23;5.88;;;;;;;;;;5103101;28;20034;-79
2022/03/22 09:30:32;;;;;;;14.07;6.70;;;;;;;;;;5105545;28;20023;-79
2022/03/22 09:32:57;;;;;;;10.05;4.43;;;;;;;;;;5105416;28;20020;-79
2022/03/22 09:35:23;;;;;;;10.85;6.10;;;;;;;;;;5106832;28;20522;-79
2022/03/22 09:37:49;;;;;;;10.55;5.93;;;;;;;;;;5101645;28;20028;-78
2022/03/22 09:40:17;;;;;;;10.48;6.10;;;;;;;;;;5099158;28;20050;-78
2022/03/22 09:42:42;;;;;;;11.55;5.93;;;;;;;;;;5100805;28;20457;-78
2022/03/22 09:45:18;;;;;;;11.35;6.13;;;;;;;;;;5097756;28;20059;-78
2022/03/22 09:47:45;;;;;;;11.18;5.68;;;;;;;;;;5099790;28;20028;-80
2022/03/22 09:50:12;;;;;;;10.75;6.10;;;;;;;;;;5100824;28;20507;-78
2022/03/22 09:52:38;;;;;;;11.73;5.90;;;;;;;;;;5101952;28;20052;-79
2022/03/22 09:55:07;;;;;;;12.05;5.72;;;;;;;;;;5103476;28;20023;-79
2022/03/22 09:57:32;;;;;;;9.95;5.55;;;;;;;;;;5103556;28;20026;-79
2022/03/22 09:59:58;;;;;;;17.85;6.20;;;;;;;;;;5100771;28;20020;-77
2022/03/22 10:02:28;;;;;;;11.80;5.82;;;;;;;;;;5103294;28;20031;-78
2022/03/22 10:04:53;;;;;;;16.67;6.28;;;;;;;;;;5102561;28;20086;-77
2022/03/22 10:07:20;;;;;;;12.52;5.85;;;;;;;;;;5103428;28;20020;-78
2022/03/22 10:10:05;;;;;;;21.35;6.07;;;;;;;;;;5106877;28;20016;-79
2022/03/22 10:12:32;;;;;;;15.73;6.30;;;;;;;;;;5098706;28;20030;-77
2022/03/22 10:15:11;;;;;;;10.93;5.88;;;;;;;;;;5097583;28;20040;-79
2022/03/22 10:17:37;;;;;;;15.40;5.88;;;;;;;;;;5100207;28;20024;-78
2022/03/22 10:20:05;;;;;;;9.05;5.63;;;;;;;;;;5102545;28;20067;-76
2022/03/22 10:22:31;;;;;;;10.73;5.80;;;;;;;;;;5097157;28;20032;-78
2022/03/22 10:24:59;;;;;;;12.32;5.18;;;;;;;;;;5103682;28;20383;-78
2022/03/22 10:27:26;;;;;;;9.60;5.20;;;;;;;;;;5099380;28;20027;-78
2022/03/22 10:29:51;;;;;;;9.93;6.07;;;;;;;;;;5100097;28;20107;-78
2022/03/22 10:32:19;;;;;;;12.40;6.03;;;;;;;;;;5099981;28;20064;-79
2022/03/22 10:34:44;;;;;;;11.18;6.00;;;;;;;;;;5100738;28;20055;-79
2022/03/22 10:37:10;;;;;;;9.85;4.80;;;;;;;;;;5104074;28;20028;-78
2022/03/22 10:39:41;;;;;;;12.15;6.10;;;;;;;;;;5106598;28;20610;-79
2022/03/22 10:42:08;;;;;;;11.73;6.00;;;;;;;;;;5097643;28;20436;-77
2022/03/22 10:44:36;;;;;;;9.88;5.95;;;;;;;;;;5096391;28;20027;-78
2022/03/22 10:47:04;;;;;;;14.43;6.72;;;;;;;;;;5096044;28;20047;-78
2022/03/22 10:49:35;;;;;;;12.80;6.30;;;;;;;;;;5099210;28;20489;-79
2022/03/22 10:52:00;;;;;;;10.23;5.65;;;;;;;;;;5100888;28;20024;-78
2022/03/22 10:54:25;;;;;;;10.18;5.72;;;;;;;;;;5098370;28;20120;-78
2022/03/22 10:56:56;;;;;;;12.33;6.57;;;;;;;;;;5095534;28;20024;-78
2022/03/22 10:59:24;;;;;;;8.63;5.55;;;;;;;;;;5097459;28;20248;-77
2022/03/22 11:01:50;;;;;;;11.88;6.10;;;;;;;;;;5096125;28;20469;-78
2022/03/22 11:04:16;;;;;;;9.45;5.63;;;;;;;;;;5097791;28;20036;-78
2022/03/22 11:06:45;;;;;;;8.52;5.55;;;;;;;;;;5096913;28;20016;-78
2022/03/22 11:09:13;;;;;;;11.88;5.32;;;;;;;;;;5097173;28;20035;-78
2022/03/22 11:11:38;;;;;;;11.30;5.47;;;;;;;;;;5100863;28;20069;-78
2022/03/22 11:14:03;;;;;;;11.13;6.18;;;;;;;;;;5099033;28;20476;-78
2022/03/22 11:16:31;;;;;;;9.13;5.50;;;;;;;;;;5098221;28;20526;-78
2022/03/22 11:19:01;;;;;;;11.95;5.75;;;;;;;;;;5096152;28;20469;-79
2022/03/22 11:21:27;;;;;;;9.85;5.13;;;;;;;;;;5096027;28;20035;-78
2022/03/22 11:24:09;;;;;;;8.20;5.15;;;;;;;;;;5095696;28;20032;-78
2022/03/22 11:26:46;;;;;;;9.65;5.85;;;;;;;;;;5097630;28;20020;-79
2022/03/22 11:29:14;;;;;;;10.15;6.03;;;;;;;;;;5096704;28;20028;-80
2022/03/22 11:31:41;;;;;;;11.68;5.45;;;;;;;;;;5098809;28;20035;-79
2022/03/22 11:34:11;;;;;;;8.32;5.03;;;;;;;;;;5101967;28;20031;-79
2022/03/22 11:36:45;;;;;;;10.43;6.25;;;;;;;;;;5099053;28;20035;-78
2022/03/22 11:39:18;;;;;;;14.07;6.20;;;;;;;;;;5100097;28;20024;-78
2022/03/22 11:44:32;;;;;;;10.25;6.07;;;;;;;;;;5099895;28;20444;-78
2022/03/22 11:47:08;;;;;;;11.73;5.88;;;;;;;;;;5097458;28;20046;-78
2022/03/22 11:50:07;;;;;;;12.57;6.35;;;;;;;;;;5101373;28;20020;-79
2022/03/22 11:52:33;;;;;;;12.20;6.00;;;;;;;;;;5047496;28;20035;-78
2022/03/22 11:55:01;;;;;;;12.43;5.63;;;;;;;;;;5102129;28;20024;-79
2022/03/22 11:57:28;;;;;;;10.75;6.15;;;;;;;;;;5102190;28;20020;-78
2022/03/22 11:59:53;;;;;;;9.48;6.45;;;;;;;;;;5096404;28;20020;-79
2022/03/22 12:02:27;;;;;;;13.38;6.40;;;;;;;;;;5100928;28;20508;-77
2022/03/22 12:04:58;;;;;;;13.38;6.60;;;;;;;;;;5104620;28;20058;-80
2022/03/22 12:07:37;;;;;;;10.13;6.32;;;;;;;;;;5101499;28;20028;-80
2022/03/22 12:10:02;;;;;;;9.90;6.32;;;;;;;;;;5097615;28;20041;-78
2022/03/22 12:12:30;;;;;;;11.20;6.10;;;;;;;;;;5097957;28;20507;-78
2022/03/22 12:14:57;;;;;;;14.90;5.97;;;;;;;;;;5096336;28;20024;-78
2022/03/22 12:17:22;;;;;;;11.95;6.57;;;;;;;;;;5098947;28;20473;-78
2022/03/22 12:19:47;;;;;;;9.38;6.03;;;;;;;;;;5103667;28;20043;-78
2022/03/22 12:22:13;;;;;;;10.23;5.87;;;;;;;;;;5104542;28;20394;-79
2022/03/22 12:24:39;;;;;;;12.38;6.70;;;;;;;;;;5098244;28;20618;-78
2022/03/22 12:27:08;;;;;;;13.25;6.40;;;;;;;;;;5097592;28;20452;-79
2022/03/22 12:29:41;;;;;;;11.10;6.40;;;;;;;;;;5101695;28;20024;-78
2022/03/22 12:32:12;;;;;;;9.77;6.23;;;;;;;;;;5102173;28;20016;-79
2022/03/22 12:34:39;;;;;;;9.30;6.15;;;;;;;;;;5100693;28;20024;-78
2022/03/22 12:37:08;;;;;;;8.77;5.35;;;;;;;;;;5098476;28;20153;-78
2022/03/22 12:39:33;;;;;;;9.25;6.15;;;;;;;;;;5098183;28;20032;-79
2022/03/22 12:41:59;;;;;;;13.55;6.38;;;;;;;;;;5098787;28;20039;-78
2022/03/22 12:44:25;;;;;;;11.43;6.38;;;;;;;;;;5098367;28;20500;-78
2022/03/22 12:46:51;;;;;;;11.95;5.95;;;;;;;;;;5098061;28;20080;-78
2022/03/22 12:49:17;;;;;;;11.30;6.35;;;;;;;;;;5100190;28;20055;-78
2022/03/22 12:51:43;;;;;;;13.00;6.57;;;;;;;;;;5101436;28;20549;-78
2022/03/22 12:54:09;;;;;;;11.80;6.22;;;;;;;;;;5102243;28;20028;-78
2022/03/22 12:56:35;;;;;;;13.57;6.70;;;;;;;;;;5098126;28;20028;-78
2022/03/22 12:59:01;;;;;;;10.60;6.20;;;;;;;;;;5095327;28;20392;-78
2022/03/22 13:01:37;;;;;;;10.48;5.82;;;;;;;;;;5099736;28;20300;-79
2022/03/22 13:04:03;;;;;;;11.07;5.47;;;;;;;;;;5098885;28;20046;-77
2022/03/22 13:06:28;;;;;;;12.32;4.97;;;;;;;;;;5097625;28;20031;-80
2022/03/22 13:11:37;;;;;;;17.02;4.85;;;;;;;;;;5101027;28;20248;-79
2022/03/22 13:16:56;;;;;;;11.35;5.50;;;;;;;;;;5096565;28;20077;-79
2022/03/22 13:19:21;;;;;;;9.77;5.65;;;;;;;;;;5095648;28;20096;-77
2022/03/22 13:21:47;;;;;;;8.48;5.72;;;;;;;;;;5095308;28;20477;-78
2022/03/22 13:24:20;;;;;;;8.98;5.00;;;;;;;;;;5096596;28;20023;-78
2022/03/22 13:26:57;;;;;;;10.45;5.45;;;;;;;;;;5099292;28;20017;-79
2022/03/22 13:29:25;;;;;;;9.68;5.40;;;;;;;;;;5101633;28;20043;-77
2022/03/22 13:31:59;;;;;;;9.63;5.00;;;;;;;;;;5097642;28;20074;-79
2022/03/22 13:34:33;;;;;;;8.88;5.13;;;;;;;;;;5100749;28;20362;-78
2022/03/22 13:37:13;;;;;;;11.55;5.72;;;;;;;;;;5101251;28;20095;-79
2022/03/22 13:39:43;;;;;;;8.38;5.45;;;;;;;;;;5100058;28;20454;-79
2022/03/22 13:42:20;;;;;;;10.07;5.03;;;;;;;;;;5099609;28;20054;-78
2022/03/22 13:44:49;;;;;;;11.05;5.45;;;;;;;;;;5103308;28;20031;-79
2022/03/22 13:47:31;;;;;;;15.73;5.55;;;;;;;;;;5102012;28;20372;-79
2022/03/22 13:49:59;;;;;;;9.57;4.97;;;;;;;;;;5100011;28;20020;-78
2022/03/22 13:52:27;;;;;;;8.73;5.35;;;;;;;;;;5104174;28;20115;-79
2022/03/22 13:54:53;;;;;;;7.75;5.00;;;;;;;;;;5104233;28;20051;-78
2022/03/22 13:57:20;;;;;;;8.50;5.35;;;;;;;;;;5102688;28;20500;-78
2022/03/22 13:59:45;;;;;;;17.02;5.13;;;;;;;;;;5100787;28;20031;-79
2022/03/22 14:02:11;;;;;;;7.47;4.57;;;;;;;;;;5104436;28;20028;-79
2022/03/22 14:04:36;;;;;;;11.48;5.50;;;;;;;;;;5103896;28;20346;-79
2022/03/22 14:07:05;;;;;;;8.73;5.18;;;;;;;;;;5103979;28;20052;-78
2022/03/22 14:09:32;;;;;;;13.00;5.80;;;;;;;;;;5101120;28;20039;-77
2022/03/22 14:11:57;;;;;;;12.05;4.70;;;;;;;;;;5097606;28;20028;-78
2022/03/22 14:14:23;;;;;;;9.48;5.47;;;;;;;;;;5100229;28;20024;-78
2022/03/22 14:16:48;;;;;;;7.68;5.53;;;;;;;;;;5099679;28;20032;-78
2022/03/22 14:19:15;;;;;;;7.10;4.90;;;;;;;;;;5101263;28;20032;-78
2022/03/22 14:21:40;;;;;;;10.82;5.50;;;;;;;;;;5100211;28;20264;-80
2022/03/22 14:24:06;;;;;;;10.05;5.40;;;;;;;;;;5105457;28;20042;-78
2022/03/22 14:26:31;;;;;;;7.63;5.38;;;;;;;;;;5097050;28;20020;-78
2022/03/22 14:28:56;;;;;;;15.60;5.72;;;;;;;;;;5102636;28;20020;-78
2022/03/22 14:31:21;;;;;;;8.57;5.77;;;;;;;;;;5107433;28;20026;-78
2022/03/22 14:33:47;;;;;;;11.15;5.72;;;;;;;;;;5103159;28;20704;-79
2022/03/22 14:36:12;;;;;;;10.05;5.97;;;;;;;;;;5105464;28;20070;-78
2022/03/22 14:38:37;;;;;;;9.23;5.50;;;;;;;;;;5108245;28;20031;-78
2022/03/22 14:41:24;;;;;;;11.07;5.40;;;;;;;;;;5105569;28;20073;-78
2022/03/22 14:43:50;;;;;;;9.90;5.97;;;;;;;;;;5104050;28;20043;-79
2022/03/22 14:46:16;;;;;;;10.88;5.90;;;;;;;;;;5102764;28;20054;-79
2022/03/22 14:48:41;;;;;;;12.25;6.22;;;;;;;;;;5106283;28;20024;-79
2022/03/22 14:51:06;;;;;;;9.10;6.00;;;;;;;;;;5100620;28;20016;-79
2022/03/22 14:58:59;;;;;;;11.07;5.68;;;;;;;;;;5103421;28;20035;-78
2022/03/22 15:01:29;;;;;;;13.88;6.10;;;;;;;;;;5102470;28;20020;-79
2022/03/22 15:03:54;;;;;;;11.80;6.35;;;;;;;;;;5104705;28;20609;-79
2022/03/22 15:06:20;;;;;;;9.35;6.10;;;;;;;;;;5100434;28;20027;-80
2022/03/22 15:08:46;;;;;;;9.25;6.38;;;;;;;;;;5103658;28;20397;-80